createdAt,value
2023-02-18T00:03:43.063Z,99514.34
2023-02-18T00:07:45.195Z,99515.91
2023-02-18T00:11:47.991Z,99550.91
2023-02-18T00:15:50.262Z,99537.97
2023-02-18T00:19:52.113Z,99550.69
2023-02-18T00:23:55.157Z,99568.13
2023-02-18T00:27:57.310Z,99569.19
2023-02-18T00:31:59.366Z,99581.91
2023-02-18T00:36:06.269Z,99578.72
2023-02-18T00:40:08.877Z,99582.97
2023-02-18T00:44:11.768Z,99583.16
2023-02-18T00:48:13.845Z,99590.31
2023-02-18T00:52:16.824Z,99595.38
2023-02-18T00:56:19.745Z,99598.16
2023-02-18T01:00:22.138Z,99596.78
2023-02-18T01:04:24.381Z,99601.25
2023-02-18T01:08:26.599Z,99611.13
2023-02-18T01:12:28.628Z,99599.28
2023-02-18T01:16:30.938Z,99604.75
2023-02-18T01:20:33.597Z,99598.19
2023-02-18T01:24:36.346Z,99615.63
2023-02-18T01:28:40.694Z,99601.22
2023-02-18T01:32:43.525Z,99605.44
2023-02-18T01:36:45.580Z,99599.44
2023-02-18T01:40:51.542Z,99593.28
2023-02-18T01:44:54.533Z,99599.81
2023-02-18T01:49:01.734Z,99599.53
2023-02-18T01:53:04.263Z,99599.31
2023-02-18T01:57:10.786Z,99599.88
2023-02-18T02:01:13.263Z,99596.81
2023-02-18T02:05:17.153Z,99592.69
2023-02-18T02:09:22.763Z,99591.94
2023-02-18T02:13:50.960Z,99575.53
2023-02-18T02:18:17.590Z,99581.41
2023-02-18T02:22:39.625Z,99599.50
2023-02-18T02:27:18.070Z,99584.28
2023-02-18T02:31:35.319Z,99585.47
2023-02-18T02:36:04.807Z,99595.25
2023-02-18T02:40:14.282Z,99598.06
2023-02-18T02:44:22.457Z,99592.56
2023-02-18T02:48:49.632Z,99593.63
2023-02-18T02:53:02.474Z,99599.53
2023-02-18T02:57:09.256Z,99604.94
2023-02-18T03:01:36.800Z,99615.38
2023-02-18T03:06:17.438Z,99619.22
2023-02-18T03:10:36.691Z,99629.28
2023-02-18T03:15:01.111Z,99631.53
2023-02-18T03:19:18.756Z,99629.78
2023-02-18T03:23:27.665Z,99630.00
2023-02-18T03:27:33.617Z,99637.63
2023-02-18T03:31:38.536Z,99639.31
2023-02-18T03:35:42.342Z,99632.09
2023-02-18T03:39:49.555Z,99643.72
2023-02-18T03:43:52.939Z,99646.56
2023-02-18T03:47:56.513Z,99654.56
2023-02-18T03:51:59.595Z,99649.69
2023-02-18T03:56:01.679Z,99651.78
2023-02-18T04:00:06.735Z,99660.69
2023-02-18T04:04:15.152Z,99651.13
2023-02-18T04:08:17.211Z,99662.72
2023-02-18T04:12:19.356Z,99646.91
2023-02-18T04:16:21.777Z,99662.03
2023-02-18T04:20:24.151Z,99658.50
2023-02-18T04:24:26.301Z,99661.66
2023-02-18T04:28:28.025Z,99666.41
2023-02-18T04:32:30.209Z,99666.66
2023-02-18T04:36:32.509Z,99677.47
2023-02-18T04:40:35.342Z,99676.78
2023-02-18T04:44:38.089Z,99674.69
2023-02-18T04:48:40.492Z,99697.81
2023-02-18T04:52:42.233Z,99681.41
2023-02-18T04:56:44.219Z,99692.50
2023-02-18T05:00:46.794Z,99688.03
2023-02-18T05:04:48.983Z,99702.47
2023-02-18T05:08:51.002Z,99689.34
2023-02-18T05:12:53.227Z,99691.22
2023-02-18T05:16:55.522Z,99709.25
2023-02-18T05:20:57.687Z,99701.94
2023-02-18T05:24:59.874Z,99695.78
2023-02-18T05:29:01.996Z,99722.72
2023-02-18T05:33:04.061Z,99720.13
2023-02-18T05:37:06.337Z,99724.28
2023-02-18T05:41:08.560Z,99732.38
2023-02-18T05:45:10.997Z,99739.44
2023-02-18T05:49:13.140Z,99725.50
2023-02-18T05:53:17.371Z,99740.84
2023-02-18T05:57:19.721Z,99738.47
2023-02-18T06:01:21.921Z,99733.00
2023-02-18T06:05:25.587Z,99736.38
2023-02-18T06:09:27.786Z,99744.34
2023-02-18T06:13:29.895Z,99737.69
2023-02-18T06:17:32.058Z,99765.16
2023-02-18T06:21:34.381Z,99762.69
2023-02-18T06:25:36.799Z,99780.78
2023-02-18T06:29:38.976Z,99792.13
2023-02-18T06:33:41.201Z,99785.00
2023-02-18T06:37:44.484Z,99784.13
2023-02-18T06:41:46.572Z,99804.63
2023-02-18T06:45:48.650Z,99804.91
2023-02-18T06:49:51.131Z,99813.69
2023-02-18T06:53:53.171Z,99811.06
2023-02-18T06:57:55.278Z,99817.75
2023-02-18T07:01:57.247Z,99789.97
2023-02-18T07:05:59.995Z,99803.72
2023-02-18T07:10:02.389Z,99791.59
2023-02-18T07:14:06.361Z,99786.47
2023-02-18T07:18:09.626Z,99806.84
2023-02-18T07:22:11.581Z,99802.69
2023-02-18T07:26:14.790Z,99812.69
2023-02-18T07:30:17.229Z,99806.75
2023-02-18T07:34:19.236Z,99805.06
2023-02-18T07:38:22.042Z,99808.00
2023-02-18T07:42:24.839Z,99805.38
2023-02-18T07:46:27.203Z,99813.84
2023-02-18T07:50:29.387Z,99815.72
2023-02-18T07:54:31.620Z,99816.88
2023-02-18T07:58:36.800Z,99819.31
2023-02-18T08:02:38.809Z,99819.22
2023-02-18T08:06:46.081Z,99822.00
2023-02-18T08:10:49.034Z,99835.59
2023-02-18T08:14:51.239Z,99846.56
2023-02-18T08:18:53.745Z,99827.59
2023-02-18T08:22:55.937Z,99835.06
2023-02-18T08:27:01.268Z,99847.16
2023-02-18T08:31:04.392Z,99856.03
2023-02-18T08:35:07.852Z,99835.06
2023-02-18T08:39:10.159Z,99827.41
2023-02-18T08:43:12.990Z,99836.31
2023-02-18T08:48:18.330Z,99830.34
2023-02-18T08:51:38.057Z,99826.81
2023-02-18T08:55:40.981Z,99844.16
2023-02-18T08:59:43.247Z,99843.66
2023-02-18T09:03:45.442Z,99851.06
2023-02-18T09:07:47.545Z,99847.97
2023-02-18T09:11:49.964Z,99844.00
2023-02-18T09:16:04.397Z,99850.06
2023-02-18T09:20:07.285Z,99854.94
2023-02-18T09:24:09.931Z,99850.56
2023-02-18T09:28:12.089Z,99876.47
2023-02-18T09:32:20.013Z,99867.59
2023-02-18T09:36:28.550Z,99862.47
2023-02-18T09:40:35.567Z,99853.34
2023-02-18T09:44:54.380Z,99881.94
2023-02-18T09:48:57.413Z,99876.13
2023-02-18T09:53:02.356Z,99880.25
2023-02-18T09:57:07.453Z,99881.84
2023-02-18T10:01:31.660Z,99891.03
2023-02-18T10:05:37.213Z,99897.25
2023-02-18T10:09:42.111Z,99891.28
2023-02-18T10:13:45.093Z,99892.78
2023-02-18T10:17:48.465Z,99876.78
2023-02-18T10:21:52.704Z,99887.66
2023-02-18T10:25:57.300Z,99878.22
2023-02-18T10:30:33.423Z,99890.84
2023-02-18T10:34:43.972Z,99899.13
2023-02-18T10:39:07.805Z,99878.44
2023-02-18T10:43:26.800Z,99871.31
2023-02-18T10:47:38.501Z,99886.03
2023-02-18T10:51:47.847Z,99872.81
2023-02-18T10:55:50.024Z,99873.25
2023-02-18T11:00:17.080Z,99864.88
2023-02-18T11:04:23.746Z,99872.81
2023-02-18T11:08:29.042Z,99876.00
2023-02-18T11:12:45.966Z,99880.81
2023-02-18T11:16:53.564Z,99873.41
2023-02-18T11:20:59.349Z,99873.69
2023-02-18T11:25:04.258Z,99863.72
2023-02-18T11:29:14.628Z,99862.63
2023-02-18T11:33:40.040Z,99868.97
2023-02-18T11:37:42.404Z,99864.72
2023-02-18T11:41:48.667Z,99864.13
2023-02-18T11:46:09.151Z,99856.88
2023-02-18T11:50:21.049Z,99848.81
2023-02-18T11:54:30.180Z,99851.94
2023-02-18T11:58:44.118Z,99846.63
2023-02-18T12:02:47.786Z,99848.00
2023-02-18T12:06:55.193Z,99843.75
2023-02-18T12:11:04.092Z,99835.91
2023-02-18T12:15:06.397Z,99846.81
2023-02-18T12:19:21.285Z,99840.09
2023-02-18T12:23:35.027Z,99831.34
2023-02-18T12:27:57.073Z,99830.97
2023-02-18T12:32:17.944Z,99830.78
2023-02-18T12:36:46.420Z,99816.81
2023-02-18T12:41:00.683Z,99823.56
2023-02-18T12:45:30.734Z,99810.38
2023-02-18T12:50:02.089Z,99804.25
2023-02-18T12:54:31.808Z,99796.72
2023-02-18T12:58:55.807Z,99794.47
2023-02-18T13:03:16.227Z,99807.97
2023-02-18T13:07:35.063Z,99803.91
2023-02-18T13:12:00.521Z,99794.81
2023-02-18T13:16:11.871Z,99789.69
2023-02-18T13:20:21.575Z,99784.25
2023-02-18T13:24:30.793Z,99780.56
2023-02-18T13:28:46.767Z,99792.69
2023-02-18T13:33:01.495Z,99786.84
2023-02-18T13:37:46.395Z,99789.88
2023-02-18T13:41:50.064Z,99801.28
2023-02-18T13:46:07.343Z,99800.34
2023-02-18T13:50:25.669Z,99798.06
2023-02-18T13:54:46.449Z,99801.63
2023-02-18T13:58:55.414Z,99782.13
2023-02-18T14:03:18.796Z,99789.09
2023-02-18T14:07:36.209Z,99780.59
2023-02-18T14:11:41.725Z,99789.53
2023-02-18T14:15:56.404Z,99786.53
2023-02-18T14:20:01.406Z,99767.06
2023-02-18T14:24:07.058Z,99789.47
2023-02-18T14:28:34.006Z,99774.06
2023-02-18T14:32:39.945Z,99758.41
2023-02-18T14:37:01.066Z,99746.69
2023-02-18T14:41:25.564Z,99745.50
2023-02-18T14:46:05.486Z,99745.91
2023-02-18T14:50:14.369Z,99731.72
2023-02-18T14:54:19.429Z,99731.44
2023-02-18T14:58:36.237Z,99734.31
2023-02-18T15:02:38.883Z,99736.59
2023-02-18T15:06:41.083Z,99731.66
2023-02-18T15:10:54.075Z,99732.25
2023-02-18T15:15:02.442Z,99716.84
2023-02-18T15:19:14.761Z,99723.44
2023-02-18T15:23:17.959Z,99704.25
2023-02-18T15:27:23.493Z,99687.13
2023-02-18T15:31:27.881Z,99719.41
2023-02-18T15:35:33.158Z,99710.28
2023-02-18T15:39:38.515Z,99718.38
2023-02-18T15:43:53.079Z,99684.00
2023-02-18T15:47:57.320Z,99660.53
2023-02-18T15:52:02.221Z,99627.69
2023-02-18T15:56:10.099Z,99625.97
2023-02-18T16:00:32.097Z,99633.78
2023-02-18T16:04:38.582Z,99633.09
2023-02-18T16:08:43.491Z,99628.44
2023-02-18T16:12:50.241Z,99619.66
2023-02-18T16:17:09.711Z,99613.88
2023-02-18T16:21:17.922Z,99627.81
2023-02-18T16:25:38.629Z,99625.38
2023-02-18T16:29:41.943Z,99626.97
2023-02-18T16:33:43.928Z,99631.00
2023-02-18T16:37:47.952Z,99621.63
2023-02-18T16:41:50.009Z,99618.13
2023-02-18T16:45:55.937Z,99612.16
2023-02-18T16:49:58.844Z,99610.34
2023-02-18T16:54:01.125Z,99618.13
2023-02-18T16:58:03.145Z,99620.94
2023-02-18T17:02:13.171Z,99613.41
2023-02-18T17:06:15.780Z,99610.06
2023-02-18T17:10:18.062Z,99613.41
2023-02-18T17:14:23.335Z,99617.28
2023-02-18T17:18:26.340Z,99615.09
2023-02-18T17:22:28.394Z,99604.72
2023-02-18T17:26:31.099Z,99596.25
2023-02-18T17:30:37.339Z,99610.25
2023-02-18T17:34:41.000Z,99603.91
2023-02-18T17:38:43.110Z,99607.38
2023-02-18T17:42:45.140Z,99606.81
2023-02-18T17:46:49.740Z,99609.41
2023-02-18T17:50:52.251Z,99609.31
2023-02-18T17:54:54.270Z,99602.50
2023-02-18T17:58:56.246Z,99598.94
2023-02-18T18:02:59.100Z,99599.97
2023-02-18T18:07:01.092Z,99594.78
2023-02-18T18:11:03.750Z,99584.84
2023-02-18T18:15:21.132Z,99571.84
2023-02-18T18:19:23.253Z,99575.19
2023-02-18T18:23:25.367Z,99565.41
2023-02-18T18:27:27.483Z,99563.78
2023-02-18T18:31:29.774Z,99578.56
2023-02-18T18:35:35.042Z,99571.50
2023-02-18T18:39:37.131Z,99571.75
2023-02-18T18:43:40.300Z,99571.41
2023-02-18T18:47:42.162Z,99561.63
2023-02-18T18:51:44.195Z,99561.44
2023-02-18T18:55:47.121Z,99551.50
2023-02-18T18:59:48.866Z,99554.59
2023-02-18T19:03:51.098Z,99567.91
2023-02-18T19:07:53.824Z,99579.94
2023-02-18T19:11:55.737Z,99592.72
2023-02-18T19:16:08.610Z,99615.25
2023-02-18T19:20:14.171Z,99615.66
2023-02-18T19:24:16.195Z,99619.06
2023-02-18T19:28:20.501Z,99615.72
2023-02-18T19:32:22.880Z,99627.75
2023-02-18T19:36:24.806Z,99637.94
2023-02-18T19:40:29.919Z,99620.31
2023-02-18T19:44:34.006Z,99627.81
2023-02-18T19:48:36.152Z,99639.50
2023-02-18T19:52:38.244Z,99647.22
2023-02-18T19:56:40.513Z,99664.47
2023-02-18T20:00:43.650Z,99677.00
2023-02-18T20:04:46.395Z,99681.09
2023-02-18T20:08:48.599Z,99683.81
2023-02-18T20:12:52.976Z,99697.59
2023-02-18T20:16:56.070Z,99709.19
2023-02-18T20:20:58.440Z,99708.47
2023-02-18T20:25:00.431Z,99719.25
2023-02-18T20:29:02.521Z,99718.66
2023-02-18T20:33:05.675Z,99734.53
2023-02-18T20:37:07.796Z,99739.31
2023-02-18T20:41:14.272Z,99744.09
2023-02-18T20:45:16.534Z,99747.66
2023-02-18T20:49:20.672Z,99754.31
2023-02-18T20:53:22.746Z,99757.75
2023-02-18T20:57:25.043Z,99760.91
2023-02-18T21:01:27.075Z,99757.31
2023-02-18T21:05:29.021Z,99763.38
2023-02-18T21:09:31.441Z,99766.81
2023-02-18T21:13:34.320Z,99782.69
2023-02-18T21:17:36.329Z,99788.97
2023-02-18T21:21:38.431Z,99798.84
2023-02-18T21:25:40.644Z,99809.38
2023-02-18T21:29:42.588Z,99827.59
2023-02-18T21:33:44.791Z,99833.94
2023-02-18T21:37:46.446Z,99856.94
2023-02-18T21:41:48.441Z,99866.19
2023-02-18T21:45:50.404Z,99875.13
2023-02-18T21:49:52.290Z,99881.16
2023-02-18T21:53:54.295Z,99898.94
2023-02-18T21:57:56.033Z,99892.75
2023-02-18T22:02:01.476Z,99893.31
2023-02-18T22:06:03.682Z,99901.09
2023-02-18T22:10:06.092Z,99908.66
2023-02-18T22:14:09.247Z,99925.66
2023-02-18T22:18:10.932Z,99913.47
2023-02-18T22:22:12.891Z,99908.78
2023-02-18T22:26:15.148Z,99927.06
2023-02-18T22:30:18.845Z,99928.63
2023-02-18T22:34:22.314Z,99931.41
2023-02-18T22:38:24.464Z,99930.44
2023-02-18T22:42:26.363Z,99933.16
2023-02-18T22:46:30.503Z,99946.97
2023-02-18T22:50:34.080Z,99947.84
2023-02-18T22:54:36.109Z,99956.03
2023-02-18T22:58:38.943Z,99955.22
2023-02-18T23:02:40.763Z,99961.94
2023-02-18T23:06:45.686Z,99971.44
2023-02-18T23:10:48.069Z,99977.34
2023-02-18T23:14:50.049Z,99984.19
2023-02-18T23:18:51.997Z,99987.69
2023-02-18T23:22:53.696Z,100001.13
2023-02-18T23:26:55.785Z,99997.63
2023-02-18T23:30:57.768Z,100014.91
2023-02-18T23:34:59.860Z,100015.63
2023-02-18T23:39:04.930Z,100016.81
2023-02-18T23:43:06.589Z,100008.63
2023-02-18T23:47:08.583Z,100016.09
2023-02-18T23:51:13.583Z,100014.06
2023-02-18T23:55:15.677Z,100030.81
2023-02-18T23:59:17.759Z,100024.25
